sensor_id;sensor_type;location;lat;lon;timestamp;P1;durP1;ratioP1;P2;durP2;ratioP2
33491;SDS011;20010;51.488;7.232;2024-02-26T00:01:04;6.13;;;5.70;;
33491;SDS011;20010;51.488;7.232;2024-02-26T00:03:33;5.50;;;5.20;;
33491;SDS011;20010;51.488;7.232;2024-02-26T00:06:19;6.68;;;6.07;;
33491;SDS011;20010;51.488;7.232;2024-02-26T00:08:55;6.55;;;5.95;;
33491;SDS011;20010;51.488;7.232;2024-02-26T00:11:24;6.55;;;6.18;;
33491;SDS011;20010;51.488;7.232;2024-02-26T00:13:56;6.18;;;5.85;;
33491;SDS011;20010;51.488;7.232;2024-02-26T00:16:27;6.18;;;5.60;;
33491;SDS011;20010;51.488;7.232;2024-02-26T00:18:59;6.47;;;6.07;;
33491;SDS011;20010;51.488;7.232;2024-02-26T00:21:28;6.83;;;6.33;;
33491;SDS011;20010;51.488;7.232;2024-02-26T00:24:02;6.57;;;6.18;;
33491;SDS011;20010;51.488;7.232;2024-02-26T00:26:39;7.43;;;6.60;;
33491;SDS011;20010;51.488;7.232;2024-02-26T00:29:12;7.78;;;6.35;;
33491;SDS011;20010;51.488;7.232;2024-02-26T00:31:41;7.13;;;6.63;;
33491;SDS011;20010;51.488;7.232;2024-02-26T00:34:10;7.07;;;6.55;;
33491;SDS011;20010;51.488;7.232;2024-02-26T00:36:46;6.70;;;6.20;;
33491;SDS011;20010;51.488;7.232;2024-02-26T00:39:18;6.20;;;5.80;;
33491;SDS011;20010;51.488;7.232;2024-02-26T00:41:53;6.70;;;6.00;;
33491;SDS011;20010;51.488;7.232;2024-02-26T00:44:34;6.57;;;6.00;;
33491;SDS011;20010;51.488;7.232;2024-02-26T00:47:03;6.88;;;6.38;;
33491;SDS011;20010;51.488;7.232;2024-02-26T00:49:36;6.82;;;6.35;;
33491;SDS011;20010;51.488;7.232;2024-02-26T00:52:15;7.93;;;6.88;;
33491;SDS011;20010;51.488;7.232;2024-02-26T00:54:43;6.70;;;6.20;;
33491;SDS011;20010;51.488;7.232;2024-02-26T00:57:19;6.65;;;6.15;;
33491;SDS011;20010;51.488;7.232;2024-02-26T00:59:49;7.43;;;6.93;;
33491;SDS011;20010;51.488;7.232;2024-02-26T01:02:19;6.88;;;6.38;;
33491;SDS011;20010;51.488;7.232;2024-02-26T01:04:53;6.38;;;5.97;;
33491;SDS011;20010;51.488;7.232;2024-02-26T01:07:20;5.97;;;5.57;;
33491;SDS011;20010;51.488;7.232;2024-02-26T01:09:56;6.22;;;5.82;;
33491;SDS011;20010;51.488;7.232;2024-02-26T01:12:25;6.70;;;6.20;;
33491;SDS011;20010;51.488;7.232;2024-02-26T01:22:30;14.95;;;6.60;;
33491;SDS011;20010;51.488;7.232;2024-02-26T01:25:09;6.95;;;6.32;;
33491;SDS011;20010;51.488;7.232;2024-02-26T01:27:54;6.32;;;5.93;;
33491;SDS011;20010;51.488;7.232;2024-02-26T01:30:24;6.30;;;5.93;;
33491;SDS011;20010;51.488;7.232;2024-02-26T01:32:58;5.90;;;5.60;;
33491;SDS011;20010;51.488;7.232;2024-02-26T01:35:26;6.20;;;5.82;;
33491;SDS011;20010;51.488;7.232;2024-02-26T01:37:59;6.68;;;6.18;;
33491;SDS011;20010;51.488;7.232;2024-02-26T01:40:32;6.70;;;6.20;;
33491;SDS011;20010;51.488;7.232;2024-02-26T01:42:59;6.57;;;6.18;;
33491;SDS011;20010;51.488;7.232;2024-02-26T01:45:31;6.65;;;6.15;;
33491;SDS011;20010;51.488;7.232;2024-02-26T01:47:59;6.50;;;6.10;;
33491;SDS011;20010;51.488;7.232;2024-02-26T01:50:27;6.43;;;5.88;;
33491;SDS011;20010;51.488;7.232;2024-02-26T01:52:58;7.13;;;6.57;;
33491;SDS011;20010;51.488;7.232;2024-02-26T01:55:28;8.10;;;7.35;;
33491;SDS011;20010;51.488;7.232;2024-02-26T01:58:00;7.70;;;6.90;;
33491;SDS011;20010;51.488;7.232;2024-02-26T02:00:36;6.97;;;6.28;;
33491;SDS011;20010;51.488;7.232;2024-02-26T02:03:08;6.50;;;6.07;;
33491;SDS011;20010;51.488;7.232;2024-02-26T02:05:50;6.50;;;5.95;;
33491;SDS011;20010;51.488;7.232;2024-02-26T02:08:19;6.22;;;5.75;;
33491;SDS011;20010;51.488;7.232;2024-02-26T02:10:48;5.97;;;5.57;;
33491;SDS011;20010;51.488;7.232;2024-02-26T02:13:18;5.72;;;5.40;;
33491;SDS011;20010;51.488;7.232;2024-02-26T02:15:52;6.38;;;5.93;;
33491;SDS011;20010;51.488;7.232;2024-02-26T02:18:27;5.47;;;5.20;;
33491;SDS011;20010;51.488;7.232;2024-02-26T02:21:03;6.05;;;5.75;;
33491;SDS011;20010;51.488;7.232;2024-02-26T02:23:33;6.00;;;5.45;;
33491;SDS011;20010;51.488;7.232;2024-02-26T02:26:03;6.10;;;5.70;;
33491;SDS011;20010;51.488;7.232;2024-02-26T02:28:32;6.00;;;5.53;;
33491;SDS011;20010;51.488;7.232;2024-02-26T02:31:02;5.90;;;5.50;;
33491;SDS011;20010;51.488;7.232;2024-02-26T02:33:34;5.63;;;5.22;;
33491;SDS011;20010;51.488;7.232;2024-02-26T02:36:02;5.90;;;5.47;;
33491;SDS011;20010;51.488;7.232;2024-02-26T02:38:32;5.30;;;5.00;;
33491;SDS011;20010;51.488;7.232;2024-02-26T02:41:03;6.10;;;5.70;;
33491;SDS011;20010;51.488;7.232;2024-02-26T02:45:59;5.95;;;5.60;;
33491;SDS011;20010;51.488;7.232;2024-02-26T02:48:29;6.15;;;5.75;;
33491;SDS011;20010;51.488;7.232;2024-02-26T02:51:03;6.47;;;5.75;;
33491;SDS011;20010;51.488;7.232;2024-02-26T02:53:31;5.90;;;5.50;;
33491;SDS011;20010;51.488;7.232;2024-02-26T02:56:01;5.10;;;4.80;;
33491;SDS011;20010;51.488;7.232;2024-02-26T02:58:32;6.13;;;5.60;;
33491;SDS011;20010;51.488;7.232;2024-02-26T03:01:04;5.90;;;5.50;;
33491;SDS011;20010;51.488;7.232;2024-02-26T03:04:02;6.13;;;5.60;;
33491;SDS011;20010;51.488;7.232;2024-02-26T03:06:32;6.30;;;5.80;;
33491;SDS011;20010;51.488;7.232;2024-02-26T03:09:00;6.10;;;5.60;;
33491;SDS011;20010;51.488;7.232;2024-02-26T03:11:35;6.15;;;5.85;;
33491;SDS011;20010;51.488;7.232;2024-02-26T03:14:05;6.20;;;5.82;;
33491;SDS011;20010;51.488;7.232;2024-02-26T03:19:23;6.30;;;5.90;;
33491;SDS011;20010;51.488;7.232;2024-02-26T03:22:00;5.75;;;5.35;;
33491;SDS011;20010;51.488;7.232;2024-02-26T03:24:30;6.75;;;6.22;;
33491;SDS011;20010;51.488;7.232;2024-02-26T03:27:08;6.35;;;5.80;;
33491;SDS011;20010;51.488;7.232;2024-02-26T03:29:39;5.80;;;5.50;;
33491;SDS011;20010;51.488;7.232;2024-02-26T03:32:06;5.88;;;5.57;;
33491;SDS011;20010;51.488;7.232;2024-02-26T03:34:33;5.80;;;5.50;;
33491;SDS011;20010;51.488;7.232;2024-02-26T03:37:01;5.47;;;5.13;;
33491;SDS011;20010;51.488;7.232;2024-02-26T03:39:27;6.40;;;5.90;;
33491;SDS011;20010;51.488;7.232;2024-02-26T03:41:54;5.80;;;5.40;;
33491;SDS011;20010;51.488;7.232;2024-02-26T03:44:22;5.28;;;4.97;;
33491;SDS011;20010;51.488;7.232;2024-02-26T03:46:49;6.00;;;5.60;;
33491;SDS011;20010;51.488;7.232;2024-02-26T03:49:15;6.00;;;5.60;;
33491;SDS011;20010;51.488;7.232;2024-02-26T03:51:43;5.63;;;5.32;;
33491;SDS011;20010;51.488;7.232;2024-02-26T03:54:09;5.30;;;4.90;;
33491;SDS011;20010;51.488;7.232;2024-02-26T03:56:36;5.10;;;4.70;;
33491;SDS011;20010;51.488;7.232;2024-02-26T03:59:03;5.28;;;4.93;;
33491;SDS011;20010;51.488;7.232;2024-02-26T04:01:31;5.95;;;5.45;;
33491;SDS011;20010;51.488;7.232;2024-02-26T04:03:58;5.57;;;5.00;;
33491;SDS011;20010;51.488;7.232;2024-02-26T04:06:25;5.72;;;5.30;;
33491;SDS011;20010;51.488;7.232;2024-02-26T04:08:52;5.47;;;5.07;;
33491;SDS011;20010;51.488;7.232;2024-02-26T04:11:19;5.10;;;4.90;;
33491;SDS011;20010;51.488;7.232;2024-02-26T04:13:46;5.15;;;4.72;;
33491;SDS011;20010;51.488;7.232;2024-02-26T04:16:15;5.32;;;5.00;;
33491;SDS011;20010;51.488;7.232;2024-02-26T04:18:42;5.50;;;5.10;;
33491;SDS011;20010;51.488;7.232;2024-02-26T04:21:09;5.30;;;4.82;;
33491;SDS011;20010;51.488;7.232;2024-02-26T04:23:36;5.20;;;4.90;;
33491;SDS011;20010;51.488;7.232;2024-02-26T04:26:04;4.90;;;4.70;;
33491;SDS011;20010;51.488;7.232;2024-02-26T04:28:31;5.10;;;4.80;;
33491;SDS011;20010;51.488;7.232;2024-02-26T04:30:58;5.40;;;5.10;;
33491;SDS011;20010;51.488;7.232;2024-02-26T04:33:25;5.20;;;4.90;;
33491;SDS011;20010;51.488;7.232;2024-02-26T04:35:52;5.13;;;4.80;;
33491;SDS011;20010;51.488;7.232;2024-02-26T04:38:18;5.15;;;4.70;;
33491;SDS011;20010;51.488;7.232;2024-02-26T04:40:45;5.32;;;5.03;;
33491;SDS011;20010;51.488;7.232;2024-02-26T04:43:13;5.38;;;4.85;;
33491;SDS011;20010;51.488;7.232;2024-02-26T04:45:40;5.00;;;4.70;;
33491;SDS011;20010;51.488;7.232;2024-02-26T04:48:07;4.90;;;4.60;;
33491;SDS011;20010;51.488;7.232;2024-02-26T04:50:34;5.72;;;5.25;;
33491;SDS011;20010;51.488;7.232;2024-02-26T04:53:01;5.28;;;4.85;;
33491;SDS011;20010;51.488;7.232;2024-02-26T04:55:28;4.97;;;4.68;;
33491;SDS011;20010;51.488;7.232;2024-02-26T04:57:55;5.30;;;5.00;;
33491;SDS011;20010;51.488;7.232;2024-02-26T05:00:22;4.75;;;4.40;;
33491;SDS011;20010;51.488;7.232;2024-02-26T05:02:49;5.82;;;5.07;;
33491;SDS011;20010;51.488;7.232;2024-02-26T05:05:16;4.85;;;4.50;;
33491;SDS011;20010;51.488;7.232;2024-02-26T05:07:42;6.32;;;5.72;;
33491;SDS011;20010;51.488;7.232;2024-02-26T05:10:10;5.65;;;5.25;;
33491;SDS011;20010;51.488;7.232;2024-02-26T05:12:37;11.43;;;8.52;;
33491;SDS011;20010;51.488;7.232;2024-02-26T05:15:06;5.68;;;5.18;;
33491;SDS011;20010;51.488;7.232;2024-02-26T05:17:33;4.97;;;4.68;;
33491;SDS011;20010;51.488;7.232;2024-02-26T05:20:01;4.80;;;4.40;;
33491;SDS011;20010;51.488;7.232;2024-02-26T05:22:28;7.72;;;4.50;;
33491;SDS011;20010;51.488;7.232;2024-02-26T05:24:55;8.18;;;7.38;;
33491;SDS011;20010;51.488;7.232;2024-02-26T05:27:22;5.68;;;5.18;;
33491;SDS011;20010;51.488;7.232;2024-02-26T05:29:50;5.55;;;5.05;;
33491;SDS011;20010;51.488;7.232;2024-02-26T05:32:18;4.57;;;4.28;;
33491;SDS011;20010;51.488;7.232;2024-02-26T05:34:45;5.43;;;4.97;;
33491;SDS011;20010;51.488;7.232;2024-02-26T05:37:12;9.02;;;8.13;;
33491;SDS011;20010;51.488;7.232;2024-02-26T05:39:38;7.78;;;6.97;;
33491;SDS011;20010;51.488;7.232;2024-02-26T05:42:07;6.03;;;5.63;;
33491;SDS011;20010;51.488;7.232;2024-02-26T05:44:35;4.85;;;4.45;;
33491;SDS011;20010;51.488;7.232;2024-02-26T05:47:02;5.00;;;4.60;;
33491;SDS011;20010;51.488;7.232;2024-02-26T05:49:32;4.85;;;4.45;;
33491;SDS011;20010;51.488;7.232;2024-02-26T05:51:59;5.28;;;4.85;;
33491;SDS011;20010;51.488;7.232;2024-02-26T05:54:26;5.10;;;4.70;;
33491;SDS011;20010;51.488;7.232;2024-02-26T05:56:53;5.18;;;4.72;;
33491;SDS011;20010;51.488;7.232;2024-02-26T05:59:21;4.85;;;4.53;;
33491;SDS011;20010;51.488;7.232;2024-02-26T06:01:48;4.47;;;4.18;;
33491;SDS011;20010;51.488;7.232;2024-02-26T06:04:15;5.25;;;4.85;;
33491;SDS011;20010;51.488;7.232;2024-02-26T06:06:44;4.85;;;4.45;;
33491;SDS011;20010;51.488;7.232;2024-02-26T06:09:12;6.97;;;4.70;;
33491;SDS011;20010;51.488;7.232;2024-02-26T06:11:39;4.85;;;4.55;;
33491;SDS011;20010;51.488;7.232;2024-02-26T06:14:06;4.90;;;4.50;;
33491;SDS011;20010;51.488;7.232;2024-02-26T06:16:32;5.22;;;4.53;;
33491;SDS011;20010;51.488;7.232;2024-02-26T06:18:59;4.97;;;4.50;;
33491;SDS011;20010;51.488;7.232;2024-02-26T06:21:27;5.80;;;5.30;;
33491;SDS011;20010;51.488;7.232;2024-02-26T06:23:54;4.00;;;3.80;;
33491;SDS011;20010;51.488;7.232;2024-02-26T06:26:21;4.68;;;4.38;;
33491;SDS011;20010;51.488;7.232;2024-02-26T06:28:48;5.30;;;4.85;;
33491;SDS011;20010;51.488;7.232;2024-02-26T06:31:14;4.75;;;4.45;;
33491;SDS011;20010;51.488;7.232;2024-02-26T06:33:42;5.25;;;4.70;;
33491;SDS011;20010;51.488;7.232;2024-02-26T06:36:09;5.82;;;4.97;;
33491;SDS011;20010;51.488;7.232;2024-02-26T06:38:36;6.03;;;5.50;;
33491;SDS011;20010;51.488;7.232;2024-02-26T06:41:03;7.50;;;6.80;;
33491;SDS011;20010;51.488;7.232;2024-02-26T06:43:31;7.47;;;6.28;;
33491;SDS011;20010;51.488;7.232;2024-02-26T06:45:57;6.05;;;5.13;;
33491;SDS011;20010;51.488;7.232;2024-02-26T06:48:24;5.28;;;4.88;;
33491;SDS011;20010;51.488;7.232;2024-02-26T06:50:51;5.78;;;5.13;;
33491;SDS011;20010;51.488;7.232;2024-02-26T06:53:18;5.53;;;5.10;;
33491;SDS011;20010;51.488;7.232;2024-02-26T06:55:45;5.75;;;5.18;;
33491;SDS011;20010;51.488;7.232;2024-02-26T06:58:12;5.68;;;5.20;;
33491;SDS011;20010;51.488;7.232;2024-02-26T07:00:39;8.52;;;7.63;;
33491;SDS011;20010;51.488;7.232;2024-02-26T07:03:05;7.35;;;6.65;;
33491;SDS011;20010;51.488;7.232;2024-02-26T07:05:32;5.70;;;5.20;;
33491;SDS011;20010;51.488;7.232;2024-02-26T07:07:59;5.03;;;4.63;;
33491;SDS011;20010;51.488;7.232;2024-02-26T07:10:26;5.43;;;4.88;;
33491;SDS011;20010;51.488;7.232;2024-02-26T07:12:53;5.32;;;4.93;;
33491;SDS011;20010;51.488;7.232;2024-02-26T07:15:20;4.60;;;4.30;;
33491;SDS011;20010;51.488;7.232;2024-02-26T07:17:47;5.03;;;4.47;;
33491;SDS011;20010;51.488;7.232;2024-02-26T07:20:16;4.40;;;4.10;;
33491;SDS011;20010;51.488;7.232;2024-02-26T07:22:44;4.78;;;4.35;;
33491;SDS011;20010;51.488;7.232;2024-02-26T07:25:11;6.60;;;4.90;;
33491;SDS011;20010;51.488;7.232;2024-02-26T07:27:40;5.72;;;5.22;;
33491;SDS011;20010;51.488;7.232;2024-02-26T07:30:07;4.90;;;4.60;;
33491;SDS011;20010;51.488;7.232;2024-02-26T07:32:37;5.05;;;4.55;;
33491;SDS011;20010;51.488;7.232;2024-02-26T07:35:05;5.97;;;5.38;;
33491;SDS011;20010;51.488;7.232;2024-02-26T07:37:32;5.78;;;5.28;;
33491;SDS011;20010;51.488;7.232;2024-02-26T07:39:59;5.97;;;5.38;;
33491;SDS011;20010;51.488;7.232;2024-02-26T07:42:26;5.80;;;5.18;;
33491;SDS011;20010;51.488;7.232;2024-02-26T07:44:53;5.10;;;4.70;;
33491;SDS011;20010;51.488;7.232;2024-02-26T07:47:20;5.47;;;4.97;;
33491;SDS011;20010;51.488;7.232;2024-02-26T07:49:47;4.97;;;4.57;;
33491;SDS011;20010;51.488;7.232;2024-02-26T07:52:14;5.18;;;4.68;;
33491;SDS011;20010;51.488;7.232;2024-02-26T07:54:41;7.30;;;4.95;;
33491;SDS011;20010;51.488;7.232;2024-02-26T07:57:08;5.45;;;5.05;;
33491;SDS011;20010;51.488;7.232;2024-02-26T07:59:34;4.93;;;4.60;;
33491;SDS011;20010;51.488;7.232;2024-02-26T08:02:01;5.25;;;4.70;;
33491;SDS011;20010;51.488;7.232;2024-02-26T08:04:29;5.47;;;5.00;;
33491;SDS011;20010;51.488;7.232;2024-02-26T08:06:56;5.00;;;4.50;;
33491;SDS011;20010;51.488;7.232;2024-02-26T08:09:23;4.97;;;4.47;;
33491;SDS011;20010;51.488;7.232;2024-02-26T08:11:50;4.95;;;4.63;;
33491;SDS011;20010;51.488;7.232;2024-02-26T08:14:18;4.70;;;4.38;;
33491;SDS011;20010;51.488;7.232;2024-02-26T08:16:45;5.43;;;4.93;;
33491;SDS011;20010;51.488;7.232;2024-02-26T08:19:12;5.43;;;4.95;;
33491;SDS011;20010;51.488;7.232;2024-02-26T08:21:41;5.00;;;4.57;;
33491;SDS011;20010;51.488;7.232;2024-02-26T08:24:08;5.47;;;4.97;;
33491;SDS011;20010;51.488;7.232;2024-02-26T08:26:35;11.07;;;4.68;;
33491;SDS011;20010;51.488;7.232;2024-02-26T08:29:02;4.97;;;4.63;;
33491;SDS011;20010;51.488;7.232;2024-02-26T08:31:28;6.00;;;5.50;;
33491;SDS011;20010;51.488;7.232;2024-02-26T08:33:56;6.20;;;4.80;;
33491;SDS011;20010;51.488;7.232;2024-02-26T08:36:29;5.85;;;5.35;;
33491;SDS011;20010;51.488;7.232;2024-02-26T08:38:58;5.72;;;5.32;;
33491;SDS011;20010;51.488;7.232;2024-02-26T08:41:24;6.00;;;5.50;;
33491;SDS011;20010;51.488;7.232;2024-02-26T08:43:51;5.57;;;5.10;;
33491;SDS011;20010;51.488;7.232;2024-02-26T08:46:19;8.52;;;5.22;;
33491;SDS011;20010;51.488;7.232;2024-02-26T08:48:46;6.47;;;5.95;;
33491;SDS011;20010;51.488;7.232;2024-02-26T08:51:13;6.63;;;5.15;;
33491;SDS011;20010;51.488;7.232;2024-02-26T08:53:40;5.72;;;5.13;;
33491;SDS011;20010;51.488;7.232;2024-02-26T08:56:09;6.40;;;5.30;;
33491;SDS011;20010;51.488;7.232;2024-02-26T08:58:43;4.88;;;4.45;;
33491;SDS011;20010;51.488;7.232;2024-02-26T09:01:12;5.53;;;5.03;;
33491;SDS011;20010;51.488;7.232;2024-02-26T09:03:39;5.38;;;4.88;;
33491;SDS011;20010;51.488;7.232;2024-02-26T09:06:06;5.25;;;4.75;;
33491;SDS011;20010;51.488;7.232;2024-02-26T09:08:33;5.43;;;4.93;;
33491;SDS011;20010;51.488;7.232;2024-02-26T09:11:02;5.75;;;5.20;;
33491;SDS011;20010;51.488;7.232;2024-02-26T09:13:30;6.00;;;5.50;;
33491;SDS011;20010;51.488;7.232;2024-02-26T09:15:56;6.55;;;5.85;;
33491;SDS011;20010;51.488;7.232;2024-02-26T09:18:23;5.80;;;5.30;;
33491;SDS011;20010;51.488;7.232;2024-02-26T09:20:50;5.97;;;5.40;;
33491;SDS011;20010;51.488;7.232;2024-02-26T09:23:17;5.40;;;4.93;;
33491;SDS011;20010;51.488;7.232;2024-02-26T09:25:47;6.40;;;5.32;;
33491;SDS011;20010;51.488;7.232;2024-02-26T09:28:14;5.82;;;5.35;;
33491;SDS011;20010;51.488;7.232;2024-02-26T09:30:44;5.43;;;5.03;;
33491;SDS011;20010;51.488;7.232;2024-02-26T09:33:11;7.35;;;6.65;;
33491;SDS011;20010;51.488;7.232;2024-02-26T09:35:39;5.88;;;5.32;;
33491;SDS011;20010;51.488;7.232;2024-02-26T09:38:07;5.88;;;5.47;;
33491;SDS011;20010;51.488;7.232;2024-02-26T09:40:35;6.43;;;5.82;;
33491;SDS011;20010;51.488;7.232;2024-02-26T09:43:04;6.13;;;5.40;;
33491;SDS011;20010;51.488;7.232;2024-02-26T09:45:33;5.45;;;4.85;;
33491;SDS011;20010;51.488;7.232;2024-02-26T09:48:00;6.45;;;5.35;;
33491;SDS011;20010;51.488;7.232;2024-02-26T09:50:27;5.68;;;5.22;;
33491;SDS011;20010;51.488;7.232;2024-02-26T09:52:54;6.15;;;5.55;;
33491;SDS011;20010;51.488;7.232;2024-02-26T09:55:21;6.35;;;5.80;;
33491;SDS011;20010;51.488;7.232;2024-02-26T09:57:49;6.32;;;5.72;;
33491;SDS011;20010;51.488;7.232;2024-02-26T10:00:18;7.50;;;6.35;;
33491;SDS011;20010;51.488;7.232;2024-02-26T10:02:46;5.68;;;5.18;;
33491;SDS011;20010;51.488;7.232;2024-02-26T10:05:16;5.40;;;4.97;;
33491;SDS011;20010;51.488;7.232;2024-02-26T10:07:47;10.93;;;5.97;;
33491;SDS011;20010;51.488;7.232;2024-02-26T10:10:14;6.82;;;6.28;;
33491;SDS011;20010;51.488;7.232;2024-02-26T10:12:42;6.97;;;6.32;;
33491;SDS011;20010;51.488;7.232;2024-02-26T10:15:09;6.70;;;6.03;;
33491;SDS011;20010;51.488;7.232;2024-02-26T10:17:35;7.70;;;6.32;;
33491;SDS011;20010;51.488;7.232;2024-02-26T10:22:45;7.28;;;6.68;;
33491;SDS011;20010;51.488;7.232;2024-02-26T10:25:12;6.25;;;5.65;;
33491;SDS011;20010;51.488;7.232;2024-02-26T10:27:40;6.65;;;6.15;;
33491;SDS011;20010;51.488;7.232;2024-02-26T10:32:49;6.82;;;6.00;;
33491;SDS011;20010;51.488;7.232;2024-02-26T10:35:16;7.65;;;6.82;;
33491;SDS011;20010;51.488;7.232;2024-02-26T10:37:44;6.82;;;6.25;;
33491;SDS011;20010;51.488;7.232;2024-02-26T10:40:11;9.05;;;7.15;;
33491;SDS011;20010;51.488;7.232;2024-02-26T10:42:39;14.20;;;12.55;;
33491;SDS011;20010;51.488;7.232;2024-02-26T10:45:07;12.52;;;9.63;;
33491;SDS011;20010;51.488;7.232;2024-02-26T10:47:38;10.25;;;8.38;;
33491;SDS011;20010;51.488;7.232;2024-02-26T10:50:06;11.65;;;9.77;;
33491;SDS011;20010;51.488;7.232;2024-02-26T10:52:35;9.52;;;8.35;;
33491;SDS011;20010;51.488;7.232;2024-02-26T10:55:03;9.18;;;8.27;;
33491;SDS011;20010;51.488;7.232;2024-02-26T10:57:34;8.00;;;6.57;;
33491;SDS011;20010;51.488;7.232;2024-02-26T11:00:06;7.72;;;6.85;;
33491;SDS011;20010;51.488;7.232;2024-02-26T11:02:34;10.38;;;7.15;;
33491;SDS011;20010;51.488;7.232;2024-02-26T11:05:03;7.60;;;6.90;;
33491;SDS011;20010;51.488;7.232;2024-02-26T11:07:34;8.68;;;7.00;;
33491;SDS011;20010;51.488;7.232;2024-02-26T11:10:04;8.98;;;8.18;;
33491;SDS011;20010;51.488;7.232;2024-02-26T11:12:34;8.07;;;7.30;;
33491;SDS011;20010;51.488;7.232;2024-02-26T11:15:04;11.27;;;9.07;;
33491;SDS011;20010;51.488;7.232;2024-02-26T11:17:32;9.00;;;7.20;;
33491;SDS011;20010;51.488;7.232;2024-02-26T11:20:00;8.43;;;7.40;;
33491;SDS011;20010;51.488;7.232;2024-02-26T11:22:30;7.75;;;7.03;;
33491;SDS011;20010;51.488;7.232;2024-02-26T11:24:57;8.55;;;7.72;;
33491;SDS011;20010;51.488;7.232;2024-02-26T11:27:25;7.90;;;7.20;;
33491;SDS011;20010;51.488;7.232;2024-02-26T11:29:56;9.88;;;7.68;;
33491;SDS011;20010;51.488;7.232;2024-02-26T11:32:27;9.63;;;7.40;;
33491;SDS011;20010;51.488;7.232;2024-02-26T11:34:57;9.38;;;6.70;;
33491;SDS011;20010;51.488;7.232;2024-02-26T11:37:25;8.38;;;7.03;;
33491;SDS011;20010;51.488;7.232;2024-02-26T11:39:52;7.72;;;6.75;;
33491;SDS011;20010;51.488;7.232;2024-02-26T11:42:22;7.13;;;6.53;;
33491;SDS011;20010;51.488;7.232;2024-02-26T11:47:22;7.28;;;6.35;;
33491;SDS011;20010;51.488;7.232;2024-02-26T11:49:50;9.02;;;7.70;;
33491;SDS011;20010;51.488;7.232;2024-02-26T11:52:17;7.50;;;6.78;;
33491;SDS011;20010;51.488;7.232;2024-02-26T11:59:51;11.38;;;7.97;;
33491;SDS011;20010;51.488;7.232;2024-02-26T12:05:17;8.02;;;7.32;;
33491;SDS011;20010;51.488;7.232;2024-02-26T12:07:47;8.27;;;7.57;;
33491;SDS011;20010;51.488;7.232;2024-02-26T12:10:20;9.20;;;7.72;;
33491;SDS011;20010;51.488;7.232;2024-02-26T12:12:58;8.90;;;7.88;;
33491;SDS011;20010;51.488;7.232;2024-02-26T12:15:31;9.93;;;8.93;;
33491;SDS011;20010;51.488;7.232;2024-02-26T12:18:02;9.63;;;8.20;;
33491;SDS011;20010;51.488;7.232;2024-02-26T12:20:29;9.90;;;8.93;;
33491;SDS011;20010;51.488;7.232;2024-02-26T12:22:57;10.45;;;9.48;;
33491;SDS011;20010;51.488;7.232;2024-02-26T12:25:25;10.10;;;8.98;;
33491;SDS011;20010;51.488;7.232;2024-02-26T12:27:53;10.57;;;9.45;;
33491;SDS011;20010;51.488;7.232;2024-02-26T12:30:21;9.65;;;8.75;;
33491;SDS011;20010;51.488;7.232;2024-02-26T12:32:48;9.75;;;8.52;;
33491;SDS011;20010;51.488;7.232;2024-02-26T12:35:16;9.85;;;8.90;;
33491;SDS011;20010;51.488;7.232;2024-02-26T12:37:43;11.02;;;9.23;;
33491;SDS011;20010;51.488;7.232;2024-02-26T12:40:11;11.23;;;9.25;;
33491;SDS011;20010;51.488;7.232;2024-02-26T12:42:38;9.32;;;8.52;;
33491;SDS011;20010;51.488;7.232;2024-02-26T12:45:07;9.00;;;8.10;;
33491;SDS011;20010;51.488;7.232;2024-02-26T12:47:36;9.30;;;8.18;;
33491;SDS011;20010;51.488;7.232;2024-02-26T12:50:04;10.57;;;8.85;;
33491;SDS011;20010;51.488;7.232;2024-02-26T12:52:35;11.38;;;10.18;;
33491;SDS011;20010;51.488;7.232;2024-02-26T12:55:03;10.38;;;8.68;;
33491;SDS011;20010;51.488;7.232;2024-02-26T12:57:35;8.93;;;8.05;;
33491;SDS011;20010;51.488;7.232;2024-02-26T13:00:07;9.20;;;8.30;;
33491;SDS011;20010;51.488;7.232;2024-02-26T13:02:36;12.60;;;11.30;;
33491;SDS011;20010;51.488;7.232;2024-02-26T13:05:04;9.80;;;8.05;;
33491;SDS011;20010;51.488;7.232;2024-02-26T13:07:32;8.25;;;7.47;;
33491;SDS011;20010;51.488;7.232;2024-02-26T13:10:00;8.18;;;7.47;;
33491;SDS011;20010;51.488;7.232;2024-02-26T13:12:27;8.80;;;7.97;;
33491;SDS011;20010;51.488;7.232;2024-02-26T13:15:00;8.48;;;7.75;;
33491;SDS011;20010;51.488;7.232;2024-02-26T13:17:31;8.25;;;7.53;;
33491;SDS011;20010;51.488;7.232;2024-02-26T13:19:58;7.97;;;7.28;;
33491;SDS011;20010;51.488;7.232;2024-02-26T13:22:25;8.98;;;8.07;;
33491;SDS011;20010;51.488;7.232;2024-02-26T13:24:53;9.07;;;8.23;;
33491;SDS011;20010;51.488;7.232;2024-02-26T13:27:22;10.10;;;9.02;;
33491;SDS011;20010;51.488;7.232;2024-02-26T13:32:48;8.75;;;7.50;;
33491;SDS011;20010;51.488;7.232;2024-02-26T13:35:15;8.10;;;7.40;;
33491;SDS011;20010;51.488;7.232;2024-02-26T13:37:42;8.02;;;7.30;;
33491;SDS011;20010;51.488;7.232;2024-02-26T13:40:09;8.13;;;7.07;;
33491;SDS011;20010;51.488;7.232;2024-02-26T13:42:38;8.10;;;7.30;;
33491;SDS011;20010;51.488;7.232;2024-02-26T13:45:05;9.38;;;8.43;;
33491;SDS011;20010;51.488;7.232;2024-02-26T13:47:36;9.32;;;7.20;;
33491;SDS011;20010;51.488;7.232;2024-02-26T13:50:03;7.68;;;6.97;;
33491;SDS011;20010;51.488;7.232;2024-02-26T13:52:30;10.95;;;7.68;;
33491;SDS011;20010;51.488;7.232;2024-02-26T13:54:59;7.97;;;7.28;;
33491;SDS011;20010;51.488;7.232;2024-02-26T13:57:27;7.97;;;6.50;;
33491;SDS011;20010;51.488;7.232;2024-02-26T13:59:58;8.88;;;7.32;;
33491;SDS011;20010;51.488;7.232;2024-02-26T14:02:25;7.38;;;6.78;;
33491;SDS011;20010;51.488;7.232;2024-02-26T14:04:52;7.18;;;6.57;;
33491;SDS011;20010;51.488;7.232;2024-02-26T14:07:22;7.43;;;6.72;;
33491;SDS011;20010;51.488;7.232;2024-02-26T14:09:49;9.85;;;7.57;;
33491;SDS011;20010;51.488;7.232;2024-02-26T14:12:20;7.13;;;6.53;;
33491;SDS011;20010;51.488;7.232;2024-02-26T14:14:50;7.97;;;7.28;;
33491;SDS011;20010;51.488;7.232;2024-02-26T14:17:19;7.85;;;7.25;;
33491;SDS011;20010;51.488;7.232;2024-02-26T14:19:46;7.30;;;6.70;;
33491;SDS011;20010;51.488;7.232;2024-02-26T14:22:14;7.10;;;6.43;;
33491;SDS011;20010;51.488;7.232;2024-02-26T14:24:44;7.85;;;7.05;;
33491;SDS011;20010;51.488;7.232;2024-02-26T14:27:12;8.32;;;7.53;;
33491;SDS011;20010;51.488;7.232;2024-02-26T14:29:43;7.50;;;6.90;;
33491;SDS011;20010;51.488;7.232;2024-02-26T14:32:10;7.82;;;7.10;;
33491;SDS011;20010;51.488;7.232;2024-02-26T14:34:37;9.25;;;8.35;;
33491;SDS011;20010;51.488;7.232;2024-02-26T14:37:04;7.68;;;7.07;;
33491;SDS011;20010;51.488;7.232;2024-02-26T14:39:32;7.53;;;6.82;;
33491;SDS011;20010;51.488;7.232;2024-02-26T14:41:59;7.57;;;6.97;;
33491;SDS011;20010;51.488;7.232;2024-02-26T14:44:27;7.65;;;7.00;;
33491;SDS011;20010;51.488;7.232;2024-02-26T14:46:53;7.60;;;6.43;;
33491;SDS011;20010;51.488;7.232;2024-02-26T14:49:21;8.98;;;7.38;;
33491;SDS011;20010;51.488;7.232;2024-02-26T14:51:48;7.78;;;6.72;;
33491;SDS011;20010;51.488;7.232;2024-02-26T14:54:15;7.63;;;6.95;;
33491;SDS011;20010;51.488;7.232;2024-02-26T14:56:42;7.47;;;6.88;;
33491;SDS011;20010;51.488;7.232;2024-02-26T14:59:09;7.43;;;6.78;;
33491;SDS011;20010;51.488;7.232;2024-02-26T15:01:36;9.65;;;6.68;;
33491;SDS011;20010;51.488;7.232;2024-02-26T15:04:02;7.43;;;6.80;;
33491;SDS011;20010;51.488;7.232;2024-02-26T15:06:31;7.70;;;7.00;;
33491;SDS011;20010;51.488;7.232;2024-02-26T15:08:58;7.07;;;6.47;;
33491;SDS011;20010;51.488;7.232;2024-02-26T15:11:25;7.50;;;6.90;;
33491;SDS011;20010;51.488;7.232;2024-02-26T15:13:52;6.70;;;6.10;;
33491;SDS011;20010;51.488;7.232;2024-02-26T15:16:19;6.30;;;5.88;;
33491;SDS011;20010;51.488;7.232;2024-02-26T15:18:49;6.30;;;5.82;;
33491;SDS011;20010;51.488;7.232;2024-02-26T15:21:16;6.68;;;6.05;;
33491;SDS011;20010;51.488;7.232;2024-02-26T15:23:43;6.50;;;5.90;;
33491;SDS011;20010;51.488;7.232;2024-02-26T15:26:28;6.05;;;5.63;;
33491;SDS011;20010;51.488;7.232;2024-02-26T15:28:55;6.22;;;5.72;;